createdAt,value
2023-03-22T00:00:02.081Z,10.25
2023-03-22T00:01:02.923Z,10.22
2023-03-22T00:02:03.773Z,10.22
2023-03-22T00:03:04.651Z,10.22
2023-03-22T00:04:05.665Z,10.20
2023-03-22T00:05:06.543Z,10.18
2023-03-22T00:06:07.389Z,10.20
2023-03-22T00:07:08.233Z,10.18
2023-03-22T00:08:09.067Z,10.17
2023-03-22T00:09:09.916Z,10.20
2023-03-22T00:10:10.768Z,10.18
2023-03-22T00:11:11.601Z,10.14
2023-03-22T00:12:12.445Z,10.17
2023-03-22T00:13:13.276Z,10.16
2023-03-22T00:14:14.101Z,10.16
2023-03-22T00:15:14.951Z,10.17
2023-03-22T00:16:15.861Z,10.14
2023-03-22T00:17:16.708Z,10.13
2023-03-22T00:18:17.567Z,10.16
2023-03-22T00:19:18.408Z,10.11
2023-03-22T00:20:20.788Z,10.10
2023-03-22T00:21:19.990Z,10.11
2023-03-22T00:22:20.847Z,10.11
2023-03-22T00:23:21.665Z,10.13
2023-03-22T00:24:22.508Z,10.13
2023-03-22T00:25:23.359Z,10.11
2023-03-22T00:26:24.213Z,10.13
2023-03-22T00:27:25.047Z,10.13
2023-03-22T00:28:25.905Z,10.13
2023-03-22T00:29:26.720Z,10.13
2023-03-22T00:30:27.552Z,10.13
2023-03-22T00:31:28.426Z,10.13
2023-03-22T00:32:29.229Z,10.14
2023-03-22T00:33:30.125Z,10.14
2023-03-22T00:34:30.958Z,10.14
2023-03-22T00:35:31.811Z,10.11
2023-03-22T00:36:32.640Z,10.14
2023-03-22T00:37:33.474Z,10.17
2023-03-22T00:38:42.079Z,10.16
2023-03-22T00:39:34.884Z,10.16
2023-03-22T00:40:35.693Z,10.18
2023-03-22T00:41:36.561Z,10.18
2023-03-22T00:42:37.378Z,10.18
2023-03-22T00:43:38.239Z,10.22
2023-03-22T00:44:39.076Z,10.20
2023-03-22T00:45:39.934Z,10.22
2023-03-22T00:46:40.780Z,10.24
2023-03-22T00:47:41.707Z,10.24
2023-03-22T00:48:42.546Z,10.24
2023-03-22T00:49:43.407Z,10.24
2023-03-22T00:50:44.223Z,10.26
2023-03-22T00:51:45.083Z,10.26
2023-03-22T00:52:45.943Z,10.25
2023-03-22T00:53:46.769Z,10.26
2023-03-22T00:54:47.639Z,10.26
2023-03-22T00:55:48.463Z,10.26
2023-03-22T00:56:49.427Z,10.25
2023-03-22T00:57:50.264Z,10.24
2023-03-22T00:58:51.094Z,10.25
2023-03-22T00:59:51.924Z,10.26
2023-03-22T01:00:52.794Z,10.26
2023-03-22T01:01:53.630Z,10.24
2023-03-22T01:02:54.459Z,10.25
2023-03-22T01:03:55.469Z,10.25
2023-03-22T01:04:56.321Z,10.25
2023-03-22T01:05:57.176Z,10.25
2023-03-22T01:06:58.011Z,10.26
2023-03-22T01:07:58.825Z,10.26
2023-03-22T01:08:59.672Z,10.25
2023-03-22T01:10:00.511Z,10.24
2023-03-22T01:11:01.504Z,10.25
2023-03-22T01:12:02.381Z,10.24
2023-03-22T01:13:03.192Z,10.26
2023-03-22T01:14:04.031Z,10.25
2023-03-22T01:15:04.879Z,10.24
2023-03-22T01:16:05.829Z,10.24
2023-03-22T01:17:06.759Z,10.26
2023-03-22T01:18:07.621Z,10.26
2023-03-22T01:19:08.446Z,10.26
2023-03-22T01:20:09.267Z,10.26
2023-03-22T01:21:10.141Z,10.26
2023-03-22T01:22:11.072Z,10.26
2023-03-22T01:23:11.902Z,10.26
2023-03-22T01:24:12.735Z,10.26
2023-03-22T01:25:13.602Z,10.22
2023-03-22T01:26:14.464Z,10.24
2023-03-22T01:27:15.309Z,10.22
2023-03-22T01:28:16.154Z,10.22
2023-03-22T01:29:16.963Z,10.22
2023-03-22T01:30:17.788Z,10.22
2023-03-22T01:31:18.688Z,10.24
2023-03-22T01:32:19.491Z,10.20
2023-03-22T01:33:20.305Z,10.20
2023-03-22T01:34:21.138Z,10.20
2023-03-22T01:35:22.000Z,10.22
2023-03-22T01:36:22.854Z,10.17
2023-03-22T01:37:23.737Z,10.18
2023-03-22T01:38:24.555Z,10.17
2023-03-22T01:39:25.382Z,10.18
2023-03-22T01:40:26.279Z,10.17
2023-03-22T01:41:27.097Z,10.16
2023-03-22T01:42:27.944Z,10.18
2023-03-22T01:43:28.792Z,10.17
2023-03-22T01:44:29.636Z,10.16
2023-03-22T01:45:30.466Z,10.17
2023-03-22T01:46:31.406Z,10.14
2023-03-22T01:47:32.239Z,10.16
2023-03-22T01:48:33.078Z,10.17
2023-03-22T01:49:33.909Z,10.17
2023-03-22T01:50:34.752Z,10.17
2023-03-22T01:51:35.595Z,10.17
2023-03-22T01:52:36.434Z,10.16
2023-03-22T01:53:37.250Z,10.17
2023-03-22T01:54:38.087Z,10.18
2023-03-22T01:55:38.931Z,10.16
2023-03-22T01:56:39.799Z,10.18
2023-03-22T01:57:40.609Z,10.18
2023-03-22T01:58:41.448Z,10.18
2023-03-22T01:59:42.301Z,10.17
2023-03-22T02:00:43.136Z,10.17
2023-03-22T02:01:44.140Z,10.17
2023-03-22T02:02:45.040Z,10.16
2023-03-22T02:03:45.880Z,10.18
2023-03-22T02:04:46.708Z,10.16
2023-03-22T02:05:47.559Z,10.16
2023-03-22T02:06:48.423Z,10.18
2023-03-22T02:07:49.275Z,10.18
2023-03-22T02:08:50.110Z,10.18
2023-03-22T02:09:50.947Z,10.17
2023-03-22T02:10:51.776Z,10.18
2023-03-22T02:11:52.614Z,10.17
2023-03-22T02:12:53.442Z,10.18
2023-03-22T02:13:54.267Z,10.20
2023-03-22T02:14:55.114Z,10.18
2023-03-22T02:15:56.091Z,10.18
2023-03-22T02:16:56.918Z,10.18
2023-03-22T02:17:57.759Z,10.18
2023-03-22T02:18:58.587Z,10.17
2023-03-22T02:19:59.420Z,10.20
2023-03-22T02:21:02.414Z,10.18
2023-03-22T02:22:01.087Z,10.17
2023-03-22T02:23:01.934Z,10.20
2023-03-22T02:24:02.759Z,10.17
2023-03-22T02:25:03.600Z,10.16
2023-03-22T02:26:04.436Z,10.17
2023-03-22T02:27:05.290Z,10.14
2023-03-22T02:28:06.118Z,10.14
2023-03-22T02:29:06.948Z,10.13
2023-03-22T02:30:07.787Z,10.10
2023-03-22T02:31:08.672Z,10.13
2023-03-22T02:32:09.496Z,10.11
2023-03-22T02:33:10.321Z,10.13
2023-03-22T02:34:11.166Z,10.11
2023-03-22T02:35:12.006Z,10.11
2023-03-22T02:36:12.850Z,10.14
2023-03-22T02:37:13.688Z,10.11
2023-03-22T02:38:14.543Z,10.09
2023-03-22T02:39:15.373Z,10.11
2023-03-22T02:40:16.199Z,10.07
2023-03-22T02:41:17.056Z,10.09
2023-03-22T02:42:17.893Z,10.09
2023-03-22T02:43:18.729Z,10.07
2023-03-22T02:44:19.546Z,10.07
2023-03-22T02:45:20.399Z,10.06
2023-03-22T02:46:21.258Z,10.04
2023-03-22T02:47:22.074Z,10.04
2023-03-22T02:48:23.038Z,10.04
2023-03-22T02:49:23.396Z,10.04
2023-03-22T02:50:24.227Z,10.02
2023-03-22T02:51:25.081Z,10.02
2023-03-22T02:52:25.926Z,9.99
2023-03-22T02:53:26.747Z,10.01
2023-03-22T02:54:27.566Z,9.98
2023-03-22T02:55:28.613Z,9.99
2023-03-22T02:56:29.453Z,9.99
2023-03-22T02:57:30.286Z,9.99
2023-03-22T02:58:31.134Z,10.01
2023-03-22T02:59:31.970Z,9.99
2023-03-22T03:00:32.802Z,10.01
2023-03-22T03:01:33.662Z,10.01
2023-03-22T03:02:34.569Z,9.99
2023-03-22T03:03:35.394Z,9.99
2023-03-22T03:04:36.222Z,10.01
2023-03-22T03:05:37.066Z,10.01
2023-03-22T03:06:37.938Z,10.02
2023-03-22T03:07:38.783Z,10.02
2023-03-22T03:08:39.607Z,10.02
2023-03-22T03:09:40.431Z,10.01
2023-03-22T03:10:41.793Z,10.04
2023-03-22T03:11:42.341Z,10.06
2023-03-22T03:12:43.169Z,10.06
2023-03-22T03:13:44.005Z,10.02
2023-03-22T03:14:44.828Z,10.02
2023-03-22T03:15:45.665Z,10.02
2023-03-22T03:16:46.652Z,10.04
2023-03-22T03:17:47.518Z,9.99
2023-03-22T03:18:48.359Z,10.01
2023-03-22T03:19:49.198Z,10.01
2023-03-22T03:20:50.013Z,10.01
2023-03-22T03:21:50.875Z,10.02
2023-03-22T03:22:51.703Z,10.01
2023-03-22T03:23:52.550Z,9.99
2023-03-22T03:24:53.373Z,10.01
2023-03-22T03:25:54.190Z,10.01
2023-03-22T03:26:55.012Z,9.99
2023-03-22T03:27:55.845Z,9.99
2023-03-22T03:28:56.690Z,9.99
2023-03-22T03:29:57.529Z,10.02
2023-03-22T03:30:58.346Z,10.01
2023-03-22T03:31:59.224Z,9.99
2023-03-22T03:33:00.086Z,9.99
2023-03-22T03:34:00.888Z,9.99
2023-03-22T03:35:01.715Z,9.98
2023-03-22T03:36:02.523Z,9.99
2023-03-22T03:37:03.388Z,9.99
2023-03-22T03:38:04.188Z,9.95
2023-03-22T03:39:04.984Z,9.96
2023-03-22T03:40:05.799Z,9.99
2023-03-22T03:41:06.629Z,9.96
2023-03-22T03:42:07.513Z,9.95
2023-03-22T03:43:08.348Z,9.95
2023-03-22T03:44:09.170Z,9.93
2023-03-22T03:45:09.983Z,9.95
2023-03-22T03:46:10.841Z,9.93
2023-03-22T03:47:11.635Z,9.91
2023-03-22T03:48:12.482Z,9.91
2023-03-22T03:49:13.284Z,9.91
2023-03-22T03:50:14.098Z,9.92
2023-03-22T03:51:14.922Z,9.91
2023-03-22T03:52:15.742Z,9.92
2023-03-22T03:53:16.560Z,9.92
2023-03-22T03:54:17.382Z,9.89
2023-03-22T03:55:18.187Z,9.86
2023-03-22T03:56:18.995Z,9.88
2023-03-22T03:57:20.025Z,9.88
2023-03-22T03:58:20.823Z,9.86
2023-03-22T03:59:21.640Z,9.86
2023-03-22T04:00:22.497Z,9.85
2023-03-22T04:01:23.346Z,9.83
2023-03-22T04:02:24.246Z,9.86
2023-03-22T04:03:25.040Z,9.85
2023-03-22T04:04:26.110Z,9.85
2023-03-22T04:05:27.041Z,9.80
2023-03-22T04:06:27.876Z,9.83
2023-03-22T04:07:28.750Z,9.81
2023-03-22T04:08:29.571Z,9.78
2023-03-22T04:09:30.366Z,9.78
2023-03-22T04:10:31.219Z,9.77
2023-03-22T04:11:32.043Z,9.80
2023-03-22T04:12:32.856Z,9.78
2023-03-22T04:13:33.664Z,9.80
2023-03-22T04:14:42.664Z,9.75
2023-03-22T04:15:35.354Z,9.75
2023-03-22T04:16:36.222Z,9.77
2023-03-22T04:17:37.009Z,9.75
2023-03-22T04:18:37.828Z,9.74
2023-03-22T04:19:38.652Z,9.73
2023-03-22T04:20:39.769Z,9.71
2023-03-22T04:21:40.132Z,9.73
2023-03-22T04:22:40.939Z,9.74
2023-03-22T04:23:41.767Z,9.70
2023-03-22T04:24:42.594Z,9.70
2023-03-22T04:25:43.398Z,9.70
2023-03-22T04:26:44.239Z,9.70
2023-03-22T04:27:45.051Z,9.63
2023-03-22T04:28:45.865Z,9.65
2023-03-22T04:29:46.674Z,9.62
2023-03-22T04:30:47.510Z,9.63
2023-03-22T04:31:48.329Z,9.59
2023-03-22T04:32:49.136Z,9.59
2023-03-22T04:33:49.951Z,9.58
2023-03-22T04:34:50.746Z,9.58
2023-03-22T04:35:51.619Z,9.58
2023-03-22T04:36:52.418Z,9.58
2023-03-22T04:37:53.196Z,9.56
2023-03-22T04:38:54.000Z,9.56
2023-03-22T04:39:54.816Z,9.53
2023-03-22T04:40:55.649Z,9.59
2023-03-22T04:41:56.491Z,9.55
2023-03-22T04:42:57.311Z,9.56
2023-03-22T04:43:58.125Z,9.55
2023-03-22T04:44:58.983Z,9.53
2023-03-22T04:45:59.839Z,9.53
2023-03-22T04:47:00.706Z,9.52
2023-03-22T04:48:01.547Z,9.53
2023-03-22T04:49:02.389Z,9.52
2023-03-22T04:50:03.188Z,9.53
2023-03-22T04:51:04.033Z,9.52
2023-03-22T04:52:04.898Z,9.52
2023-03-22T04:53:05.714Z,9.50
2023-03-22T04:54:06.519Z,9.52
2023-03-22T04:55:07.322Z,9.49
2023-03-22T04:56:08.126Z,9.45
2023-03-22T04:57:08.953Z,9.48
2023-03-22T04:58:09.768Z,9.48
2023-03-22T04:59:10.581Z,9.44
2023-03-22T05:00:11.431Z,9.44
2023-03-22T05:01:12.300Z,9.42
2023-03-22T05:02:13.110Z,9.38
2023-03-22T05:03:13.970Z,9.40
2023-03-22T05:04:14.777Z,9.40
2023-03-22T05:05:15.604Z,9.38
2023-03-22T05:06:16.417Z,9.40
2023-03-22T05:07:17.228Z,9.38
2023-03-22T05:08:18.041Z,9.38
2023-03-22T05:09:20.408Z,9.37
2023-03-22T05:10:19.393Z,9.35
2023-03-22T05:11:20.303Z,9.34
2023-03-22T05:12:21.100Z,9.35
2023-03-22T05:13:21.917Z,9.34
2023-03-22T05:14:22.752Z,9.32
2023-03-22T05:15:23.559Z,9.31
2023-03-22T05:16:24.408Z,9.32
2023-03-22T05:17:25.216Z,9.31
2023-03-22T05:18:26.019Z,9.30
2023-03-22T05:19:26.843Z,9.30
2023-03-22T05:20:27.651Z,9.27
2023-03-22T05:21:28.479Z,9.30
2023-03-22T05:22:29.304Z,9.26
2023-03-22T05:23:30.108Z,9.24
2023-03-22T05:24:30.934Z,9.24
2023-03-22T05:25:31.766Z,9.22
2023-03-22T05:26:32.564Z,9.23
2023-03-22T05:27:33.389Z,9.20
2023-03-22T05:28:34.202Z,9.17
2023-03-22T05:29:34.988Z,9.19
2023-03-22T05:30:35.807Z,9.16
2023-03-22T05:31:36.688Z,9.17
2023-03-22T05:32:37.498Z,9.17
2023-03-22T05:33:38.293Z,9.19
2023-03-22T05:34:45.651Z,9.16
2023-03-22T05:35:40.204Z,9.16
2023-03-22T05:36:41.032Z,9.13
2023-03-22T05:37:41.927Z,9.12
2023-03-22T05:38:42.731Z,9.13
2023-03-22T05:39:43.566Z,9.10
2023-03-22T05:40:44.402Z,9.12
2023-03-22T05:41:45.217Z,9.06
2023-03-22T05:42:46.070Z,9.04
2023-03-22T05:43:46.885Z,9.04
2023-03-22T05:44:47.707Z,9.03
2023-03-22T05:45:48.753Z,9.04
2023-03-22T05:46:49.122Z,9.04
2023-03-22T05:47:49.929Z,9.04
2023-03-22T05:48:50.772Z,9.01
2023-03-22T05:49:51.590Z,9.01
2023-03-22T05:50:52.403Z,9.00
2023-03-22T05:51:53.213Z,9.00
2023-03-22T05:52:54.060Z,9.03
2023-03-22T05:53:54.976Z,9.03
2023-03-22T05:54:55.799Z,9.00
2023-03-22T05:55:56.626Z,9.00
2023-03-22T05:56:57.437Z,9.01
2023-03-22T05:57:58.289Z,9.04
2023-03-22T05:58:59.093Z,9.04
2023-03-22T05:59:59.941Z,9.03
2023-03-22T06:01:00.805Z,9.04
2023-03-22T06:02:01.647Z,9.04
2023-03-22T06:03:02.481Z,9.04
2023-03-22T06:04:03.287Z,9.04
2023-03-22T06:05:04.116Z,9.06
2023-03-22T06:06:04.931Z,9.06
2023-03-22T06:07:05.874Z,9.06
2023-03-22T06:08:06.699Z,9.06
2023-03-22T06:09:16.738Z,9.06
2023-03-22T06:10:08.100Z,9.08
2023-03-22T06:11:08.899Z,9.06
2023-03-22T06:12:09.712Z,9.06
2023-03-22T06:13:10.575Z,9.08
2023-03-22T06:14:11.406Z,9.10
2023-03-22T06:15:12.247Z,9.10
2023-03-22T06:16:13.119Z,9.10
2023-03-22T06:17:14.006Z,9.13
2023-03-22T06:18:14.880Z,9.13
2023-03-22T06:19:15.757Z,9.15
2023-03-22T06:20:16.585Z,9.13
2023-03-22T06:21:17.393Z,9.13
2023-03-22T06:22:18.249Z,9.16
2023-03-22T06:23:19.112Z,9.16
2023-03-22T06:24:19.927Z,9.17
2023-03-22T06:25:20.746Z,9.19
2023-03-22T06:26:21.554Z,9.20
2023-03-22T06:27:22.434Z,9.20
2023-03-22T06:28:23.231Z,9.24
2023-03-22T06:29:24.041Z,9.27
2023-03-22T06:30:24.995Z,9.24
2023-03-22T06:31:25.865Z,9.30
2023-03-22T06:32:26.829Z,9.31
2023-03-22T06:33:27.672Z,9.30
2023-03-22T06:34:28.566Z,9.32
2023-03-22T06:35:29.455Z,9.32
2023-03-22T06:36:30.337Z,9.35
2023-03-22T06:37:31.173Z,9.32
2023-03-22T06:38:31.986Z,9.34
2023-03-22T06:39:32.807Z,9.40
2023-03-22T06:40:33.618Z,9.41
2023-03-22T06:41:34.424Z,9.42
2023-03-22T06:42:35.261Z,9.42
2023-03-22T06:43:36.112Z,9.45
2023-03-22T06:44:36.898Z,9.45
2023-03-22T06:45:37.739Z,9.48
2023-03-22T06:46:38.572Z,9.48
2023-03-22T06:47:39.628Z,9.49
2023-03-22T06:48:40.461Z,9.49
2023-03-22T06:49:41.275Z,9.50
2023-03-22T06:50:44.214Z,9.50
2023-03-22T06:51:42.986Z,9.52
2023-03-22T06:52:43.823Z,9.55
2023-03-22T06:53:44.646Z,9.55
2023-03-22T06:54:45.462Z,9.56
2023-03-22T06:55:46.309Z,9.59
2023-03-22T06:56:47.136Z,9.58
2023-03-22T06:57:47.954Z,9.60
2023-03-22T06:58:48.797Z,9.60
2023-03-22T06:59:49.613Z,9.62
2023-03-22T07:00:50.415Z,9.60
2023-03-22T07:01:51.226Z,9.65
2023-03-22T07:02:52.859Z,9.65
2023-03-22T07:03:52.566Z,9.70
2023-03-22T07:04:53.396Z,9.70
2023-03-22T07:05:54.182Z,9.70
2023-03-22T07:06:55.015Z,9.73
2023-03-22T07:07:55.866Z,9.74
2023-03-22T07:08:56.670Z,9.78
2023-03-22T07:09:57.491Z,9.81
2023-03-22T07:10:58.319Z,9.88
2023-03-22T07:11:59.138Z,9.89
2023-03-22T07:12:59.972Z,9.91
2023-03-22T07:14:00.784Z,9.92
2023-03-22T07:15:01.604Z,9.96
2023-03-22T07:16:02.505Z,9.98
2023-03-22T07:17:03.342Z,10.02
2023-03-22T07:18:04.187Z,10.07
2023-03-22T07:19:05.066Z,10.07
2023-03-22T07:20:05.888Z,10.13
2023-03-22T07:21:06.722Z,10.17
2023-03-22T07:22:07.549Z,10.20
2023-03-22T07:23:08.398Z,10.25
2023-03-22T07:24:09.264Z,10.26
2023-03-22T07:25:10.082Z,10.34
2023-03-22T07:26:11.860Z,10.38
2023-03-22T07:27:11.526Z,10.44
2023-03-22T07:28:12.383Z,10.47
2023-03-22T07:29:13.217Z,10.52
2023-03-22T07:30:14.034Z,10.57
2023-03-22T07:31:14.876Z,10.60
2023-03-22T07:32:15.784Z,10.63
2023-03-22T07:33:16.618Z,10.69
2023-03-22T07:34:17.449Z,10.75
2023-03-22T07:35:18.325Z,10.86
2023-03-22T07:36:19.153Z,10.88
2023-03-22T07:37:20.012Z,10.95
2023-03-22T07:38:20.872Z,11.02
2023-03-22T07:39:21.749Z,11.08
2023-03-22T07:40:22.567Z,11.11
2023-03-22T07:41:23.403Z,11.20
2023-03-22T07:42:24.290Z,11.21
2023-03-22T07:43:25.143Z,11.26
2023-03-22T07:44:25.968Z,11.28
2023-03-22T07:45:26.901Z,11.31
2023-03-22T07:46:27.803Z,11.35
2023-03-22T07:47:40.274Z,11.36
2023-03-22T07:48:29.275Z,11.39
2023-03-22T07:49:30.096Z,11.41
2023-03-22T07:50:30.951Z,11.41
2023-03-22T07:51:31.788Z,11.46
2023-03-22T07:52:32.672Z,11.49
2023-03-22T07:53:33.489Z,11.54
2023-03-22T07:54:34.701Z,11.60
2023-03-22T07:55:35.018Z,11.63
2023-03-22T07:56:35.867Z,11.67
2023-03-22T07:57:36.727Z,11.69
2023-03-22T07:58:37.667Z,11.67
2023-03-22T07:59:40.108Z,11.70
2023-03-22T08:00:39.566Z,11.72
2023-03-22T08:01:39.897Z,11.75
2023-03-22T08:02:40.801Z,11.72
2023-03-22T08:03:41.641Z,11.74
2023-03-22T08:04:42.477Z,11.75
2023-03-22T08:05:43.883Z,11.77
2023-03-22T08:06:44.232Z,11.75
2023-03-22T08:07:45.090Z,11.70
2023-03-22T08:08:45.953Z,11.67
2023-03-22T08:09:46.767Z,11.64
2023-03-22T08:10:47.603Z,11.70
2023-03-22T08:11:48.438Z,11.67
2023-03-22T08:12:49.284Z,11.69
2023-03-22T08:13:50.113Z,11.67
2023-03-22T08:14:50.939Z,11.64
2023-03-22T08:15:51.778Z,11.66
2023-03-22T08:16:52.597Z,11.67
2023-03-22T08:17:53.444Z,11.67
2023-03-22T08:18:54.292Z,11.69
2023-03-22T08:19:55.130Z,11.69
2023-03-22T08:20:55.998Z,11.72
2023-03-22T08:21:56.932Z,11.70
2023-03-22T08:22:57.792Z,11.75
2023-03-22T08:23:58.632Z,11.75
2023-03-22T08:24:59.509Z,11.78
2023-03-22T08:26:00.340Z,11.79
2023-03-22T08:27:01.177Z,11.82
2023-03-22T08:28:02.039Z,11.88
2023-03-22T08:29:02.899Z,11.94
2023-03-22T08:30:03.770Z,12.01
2023-03-22T08:31:04.560Z,12.11
2023-03-22T08:32:05.486Z,12.25
2023-03-22T08:33:06.344Z,12.31
2023-03-22T08:34:07.196Z,12.40
2023-03-22T08:35:08.027Z,12.49
2023-03-22T08:36:08.869Z,12.55
2023-03-22T08:37:09.705Z,12.63
2023-03-22T08:38:10.573Z,12.69
2023-03-22T08:39:11.420Z,12.73
2023-03-22T08:40:12.287Z,12.77
2023-03-22T08:41:13.179Z,12.76
2023-03-22T08:42:14.008Z,12.73
2023-03-22T08:43:14.841Z,12.73
2023-03-22T08:44:15.685Z,12.71
2023-03-22T08:45:16.520Z,12.73
2023-03-22T08:46:17.386Z,12.70
2023-03-22T08:47:18.213Z,12.73
2023-03-22T08:48:19.090Z,12.70
2023-03-22T08:49:19.951Z,12.71
2023-03-22T08:50:20.779Z,12.74
2023-03-22T08:51:21.602Z,12.77
2023-03-22T08:52:22.448Z,12.77
2023-03-22T08:53:23.297Z,12.88
2023-03-22T08:54:24.129Z,12.92
2023-03-22T08:55:24.984Z,13.01
2023-03-22T08:56:25.805Z,13.10
2023-03-22T08:57:26.685Z,13.21
2023-03-22T08:58:27.533Z,13.27
2023-03-22T08:59:28.376Z,13.35
2023-03-22T09:00:39.308Z,13.43
2023-03-22T09:01:29.891Z,13.47
2023-03-22T09:02:30.782Z,13.50
2023-03-22T09:03:31.648Z,13.53
2023-03-22T09:04:32.649Z,13.55
2023-03-22T09:05:33.538Z,13.62
2023-03-22T09:06:34.347Z,13.63
2023-03-22T09:07:35.233Z,13.68
2023-03-22T09:08:36.121Z,13.71
2023-03-22T09:09:36.979Z,13.75
2023-03-22T09:10:37.828Z,13.80
2023-03-22T09:11:38.672Z,13.90
2023-03-22T09:12:39.568Z,13.91
2023-03-22T09:13:40.398Z,13.99
2023-03-22T09:14:41.218Z,14.01
2023-03-22T09:15:42.373Z,14.04
2023-03-22T09:16:42.782Z,14.06
2023-03-22T09:17:43.654Z,14.08
2023-03-22T09:18:44.478Z,14.09
2023-03-22T09:19:45.321Z,14.11
2023-03-22T09:20:46.154Z,14.09
2023-03-22T09:21:47.085Z,14.12
2023-03-22T09:22:47.932Z,14.11
2023-03-22T09:23:48.855Z,14.17
2023-03-22T09:24:49.708Z,14.16
2023-03-22T09:25:50.550Z,14.19
2023-03-22T09:26:51.479Z,14.20
2023-03-22T09:27:52.336Z,14.19
2023-03-22T09:28:53.171Z,14.16
2023-03-22T09:29:54.013Z,14.16
2023-03-22T09:30:54.912Z,14.12
2023-03-22T09:31:55.737Z,14.08
2023-03-22T09:32:56.575Z,14.09
2023-03-22T09:33:57.439Z,13.99
2023-03-22T09:34:58.277Z,13.96
2023-03-22T09:35:59.172Z,13.91
2023-03-22T09:36:59.996Z,13.93
2023-03-22T09:38:00.901Z,13.94
2023-03-22T09:39:01.710Z,13.94
2023-03-22T09:40:02.536Z,13.94
2023-03-22T09:41:03.378Z,13.90
2023-03-22T09:42:04.818Z,13.94
2023-03-22T09:43:05.093Z,14.01
2023-03-22T09:44:05.926Z,14.09
2023-03-22T09:45:06.780Z,14.19
2023-03-22T09:46:07.643Z,14.30
2023-03-22T09:47:08.476Z,14.44
2023-03-22T09:48:09.400Z,14.56
2023-03-22T09:49:10.271Z,14.66
2023-03-22T09:50:11.105Z,14.82
2023-03-22T09:51:11.949Z,14.85
2023-03-22T09:52:12.797Z,14.85
2023-03-22T09:53:13.664Z,14.87
2023-03-22T09:54:14.466Z,14.95
2023-03-22T09:55:15.354Z,14.93
2023-03-22T09:56:16.167Z,15.00
2023-03-22T09:57:16.997Z,15.09
2023-03-22T09:58:17.872Z,15.19
2023-03-22T09:59:18.753Z,15.27
2023-03-22T10:00:19.883Z,15.33
2023-03-22T10:01:21.065Z,15.40
2023-03-22T10:02:21.025Z,15.41
2023-03-22T10:03:21.899Z,15.40
2023-03-22T10:04:22.789Z,15.41
2023-03-22T10:05:23.611Z,15.48
2023-03-22T10:06:24.430Z,15.41
2023-03-22T10:07:25.305Z,15.37
2023-03-22T10:08:26.142Z,15.33
2023-03-22T10:09:26.970Z,15.30
2023-03-22T10:10:27.791Z,15.28
2023-03-22T10:11:28.614Z,15.27
2023-03-22T10:12:29.478Z,15.31
2023-03-22T10:13:30.305Z,15.31
2023-03-22T10:14:31.138Z,15.27
2023-03-22T10:15:32.034Z,15.27
2023-03-22T10:16:32.937Z,15.30
2023-03-22T10:17:33.859Z,15.27
2023-03-22T10:18:34.720Z,15.28
2023-03-22T10:19:35.574Z,15.28
2023-03-22T10:20:36.430Z,15.30
2023-03-22T10:21:37.274Z,15.31
2023-03-22T10:22:38.119Z,15.37
2023-03-22T10:23:38.928Z,15.41
2023-03-22T10:24:40.398Z,15.46
2023-03-22T10:25:41.295Z,15.49
2023-03-22T10:26:41.741Z,15.53
2023-03-22T10:27:42.622Z,15.58
2023-03-22T10:28:43.485Z,15.52
2023-03-22T10:29:44.307Z,15.64
2023-03-22T10:30:45.206Z,15.60
2023-03-22T10:31:46.197Z,15.59
2023-03-22T10:32:57.109Z,15.62
2023-03-22T10:33:47.621Z,15.66
2023-03-22T10:34:48.438Z,15.68
2023-03-22T10:35:49.285Z,15.70
2023-03-22T10:36:50.237Z,15.70
2023-03-22T10:37:51.087Z,15.67
2023-03-22T10:38:51.915Z,15.67
2023-03-22T10:39:52.751Z,15.68
2023-03-22T10:40:53.655Z,15.64
2023-03-22T10:41:56.384Z,15.64
2023-03-22T10:42:55.230Z,15.60
2023-03-22T10:43:56.061Z,15.64
2023-03-22T10:44:56.873Z,15.53
2023-03-22T10:45:57.738Z,15.49
2023-03-22T10:46:58.603Z,15.49
2023-03-22T10:47:59.502Z,15.40
2023-03-22T10:49:00.399Z,15.41
2023-03-22T10:50:01.243Z,15.37
2023-03-22T10:51:02.221Z,15.38
2023-03-22T10:52:03.051Z,15.34
2023-03-22T10:53:03.939Z,15.40
2023-03-22T10:54:04.774Z,15.43
2023-03-22T10:55:05.620Z,15.41
2023-03-22T10:56:06.464Z,15.40
2023-03-22T10:57:07.292Z,15.38
2023-03-22T10:58:08.137Z,15.38
2023-03-22T10:59:08.974Z,15.34
2023-03-22T11:00:09.805Z,15.35
2023-03-22T11:01:10.738Z,15.40
2023-03-22T11:02:11.751Z,15.41
2023-03-22T11:03:12.743Z,15.37
2023-03-22T11:04:13.592Z,15.33
2023-03-22T11:05:14.414Z,15.30
2023-03-22T11:06:15.266Z,15.28
2023-03-22T11:07:16.399Z,15.27
2023-03-22T11:08:17.291Z,15.18
2023-03-22T11:09:18.127Z,15.23
2023-03-22T11:10:19.001Z,15.22
2023-03-22T11:11:19.871Z,15.20
2023-03-22T11:12:20.733Z,15.18
2023-03-22T11:13:21.600Z,15.15
2023-03-22T11:14:22.473Z,15.15
2023-03-22T11:15:23.292Z,15.11
2023-03-22T11:16:24.138Z,15.09
2023-03-22T11:17:25.010Z,15.03
2023-03-22T11:18:25.832Z,14.98
2023-03-22T11:19:26.699Z,14.94
2023-03-22T11:20:29.831Z,14.94
2023-03-22T11:21:28.492Z,14.86
2023-03-22T11:22:29.436Z,14.83
2023-03-22T11:23:30.357Z,14.79
2023-03-22T11:24:31.183Z,14.79
2023-03-22T11:25:32.080Z,14.75
2023-03-22T11:26:33.623Z,14.75
2023-03-22T11:27:33.867Z,14.74
2023-03-22T11:28:34.670Z,14.69
2023-03-22T11:29:35.518Z,14.69
2023-03-22T11:30:37.048Z,14.69
2023-03-22T11:31:37.407Z,14.69
2023-03-22T11:32:38.382Z,14.63
2023-03-22T11:33:39.239Z,14.63
2023-03-22T11:34:40.129Z,14.61
2023-03-22T11:35:47.714Z,14.60
2023-03-22T11:36:41.590Z,14.57
2023-03-22T11:37:42.134Z,14.54
2023-03-22T11:38:47.213Z,14.54
2023-03-22T11:39:43.861Z,14.49
2023-03-22T11:40:44.706Z,14.49
2023-03-22T11:41:45.530Z,14.48
2023-03-22T11:42:46.522Z,14.46
2023-03-22T11:43:47.364Z,14.46
2023-03-22T11:44:48.190Z,14.41
2023-03-22T11:45:49.042Z,14.48
2023-03-22T11:46:49.920Z,14.48
2023-03-22T11:47:50.944Z,14.41
2023-03-22T11:48:51.872Z,14.42
2023-03-22T11:49:52.743Z,14.41
2023-03-22T11:50:53.597Z,14.39
2023-03-22T11:51:54.437Z,14.42
2023-03-22T11:52:55.287Z,14.39
2023-03-22T11:53:56.145Z,14.38
2023-03-22T11:54:56.983Z,14.38
2023-03-22T11:55:57.825Z,14.38
2023-03-22T11:56:58.676Z,14.35
2023-03-22T11:57:59.517Z,14.34
2023-03-22T11:59:00.325Z,14.30
2023-03-22T12:00:01.181Z,14.30
2023-03-22T12:01:02.005Z,14.34
2023-03-22T12:02:02.920Z,14.30
2023-03-22T12:03:03.891Z,14.27
2023-03-22T12:04:04.879Z,14.29
2023-03-22T12:05:05.847Z,14.30
2023-03-22T12:06:06.696Z,14.24
2023-03-22T12:07:07.532Z,14.29
2023-03-22T12:08:08.390Z,14.27
2023-03-22T12:09:09.242Z,14.27
2023-03-22T12:10:10.078Z,14.27
2023-03-22T12:11:10.930Z,14.30
2023-03-22T12:12:11.780Z,14.29
2023-03-22T12:13:12.611Z,14.29
2023-03-22T12:14:13.522Z,14.27
2023-03-22T12:15:14.379Z,14.26
2023-03-22T12:16:15.263Z,14.26
2023-03-22T12:17:16.121Z,14.26
2023-03-22T12:18:17.008Z,14.24
2023-03-22T12:19:17.829Z,14.26
2023-03-22T12:20:18.665Z,14.24
2023-03-22T12:21:19.495Z,14.26
2023-03-22T12:22:20.360Z,14.24
2023-03-22T12:23:21.226Z,14.24
2023-03-22T12:24:22.069Z,14.27
2023-03-22T12:25:22.909Z,14.24
2023-03-22T12:26:23.746Z,14.21
2023-03-22T12:27:24.625Z,14.21
2023-03-22T12:28:25.455Z,14.19
2023-03-22T12:29:26.278Z,14.13
2023-03-22T12:30:27.106Z,14.11
2023-03-22T12:31:28.027Z,14.06
2023-03-22T12:32:28.905Z,14.02
2023-03-22T12:33:29.730Z,13.98
2023-03-22T12:34:30.563Z,13.96
2023-03-22T12:35:31.403Z,13.98
2023-03-22T12:36:32.227Z,13.96
2023-03-22T12:37:33.082Z,13.98
2023-03-22T12:38:34.048Z,13.93
2023-03-22T12:39:34.913Z,13.91
2023-03-22T12:40:35.728Z,13.90
2023-03-22T12:41:36.568Z,13.93
2023-03-22T12:42:40.476Z,13.93
2023-03-22T12:43:37.978Z,13.90
2023-03-22T12:44:38.831Z,13.93
2023-03-22T12:45:39.863Z,13.87
2023-03-22T12:46:40.339Z,13.88
2023-03-22T12:47:41.306Z,13.91
2023-03-22T12:48:41.739Z,13.90
2023-03-22T12:49:42.180Z,13.88
2023-03-22T12:50:43.371Z,13.88
2023-03-22T12:51:43.709Z,13.90
2023-03-22T12:52:46.028Z,13.88
2023-03-22T12:53:45.260Z,13.86
2023-03-22T12:54:46.089Z,13.87
2023-03-22T12:55:46.921Z,13.84
2023-03-22T12:56:47.736Z,13.86
2023-03-22T12:57:48.597Z,13.81
2023-03-22T12:58:49.423Z,13.81
2023-03-22T12:59:50.234Z,13.76
2023-03-22T13:00:51.157Z,13.76
2023-03-22T13:01:51.990Z,13.73
2023-03-22T13:02:53.023Z,13.75
2023-03-22T13:03:53.970Z,13.71
2023-03-22T13:04:54.875Z,13.69
2023-03-22T13:05:55.733Z,13.66
2023-03-22T13:06:56.572Z,13.68
2023-03-22T13:07:57.406Z,13.65
2023-03-22T13:08:58.278Z,13.62
2023-03-22T13:09:59.131Z,13.62
2023-03-22T13:10:59.955Z,13.59